createdAt,value
2023-04-05T00:01:20.076Z,2.70
2023-04-05T00:03:48.643Z,2.70
2023-04-05T00:06:17.221Z,2.70
2023-04-05T00:08:49.978Z,2.80
2023-04-05T00:11:20.740Z,2.90
2023-04-05T00:13:49.598Z,2.90
2023-04-05T00:16:19.008Z,3.00
2023-04-05T00:18:50.033Z,3.00
2023-04-05T00:21:21.871Z,3.10
2023-04-05T00:23:51.590Z,3.10
2023-04-05T00:26:22.681Z,3.10
2023-04-05T00:28:55.253Z,3.00
2023-04-05T00:31:24.781Z,3.00
2023-04-05T00:33:53.438Z,3.00
2023-04-05T00:36:22.570Z,3.00
2023-04-05T00:38:50.946Z,3.00
2023-04-05T00:41:21.918Z,3.00
2023-04-05T00:43:51.155Z,3.00
2023-04-05T00:46:20.042Z,3.10
2023-04-05T00:48:49.034Z,3.10
2023-04-05T00:51:17.940Z,3.10
2023-04-05T00:53:46.186Z,3.10
2023-04-05T00:56:17.273Z,3.10
2023-04-05T00:58:48.670Z,3.10
2023-04-05T01:01:20.538Z,3.10
2023-04-05T01:03:53.792Z,3.10
2023-04-05T01:07:01.208Z,3.20
2023-04-05T01:09:44.092Z,3.20
2023-04-05T01:12:17.107Z,3.20
2023-04-05T01:14:51.696Z,3.10
2023-04-05T01:17:22.812Z,3.10
2023-04-05T01:19:54.742Z,3.10
2023-04-05T01:22:57.402Z,3.10
2023-04-05T01:25:59.039Z,3.10
2023-04-05T01:28:49.140Z,3.10
2023-04-05T01:31:27.324Z,3.00
2023-04-05T01:34:03.327Z,3.00
2023-04-05T01:36:38.213Z,3.00
2023-04-05T01:39:09.437Z,2.90
2023-04-05T01:41:40.350Z,2.90
2023-04-05T01:44:08.719Z,2.90
2023-04-05T01:46:38.616Z,2.90
2023-04-05T01:49:07.498Z,2.80
2023-04-05T01:51:36.425Z,2.80
2023-04-05T01:54:05.505Z,2.80
2023-04-05T01:56:33.792Z,2.80
2023-04-05T01:59:02.466Z,2.80
2023-04-05T02:01:32.338Z,2.80
2023-04-05T02:04:01.982Z,2.80
2023-04-05T02:06:32.055Z,2.80
2023-04-05T02:09:03.232Z,2.80
2023-04-05T02:11:32.104Z,2.80
2023-04-05T02:14:00.390Z,2.80
2023-04-05T02:16:33.175Z,2.80
2023-04-05T02:19:03.242Z,2.80
2023-04-05T02:21:32.020Z,2.80
2023-04-05T02:24:00.629Z,2.80
2023-04-05T02:26:28.880Z,2.80
2023-04-05T02:28:59.166Z,2.90
2023-04-05T02:31:27.426Z,2.90
2023-04-05T02:33:56.251Z,2.90
2023-04-05T02:36:28.353Z,3.00
2023-04-05T02:38:57.096Z,3.00
2023-04-05T02:41:26.023Z,3.00
2023-04-05T02:43:54.212Z,3.00
2023-04-05T02:46:22.746Z,3.00
2023-04-05T02:48:51.334Z,3.00
2023-04-05T02:51:20.702Z,2.90
2023-04-05T02:53:50.759Z,2.90
2023-04-05T02:56:19.529Z,2.90
2023-04-05T02:58:49.380Z,2.80
2023-04-05T03:01:24.005Z,2.80
2023-04-05T03:03:52.504Z,2.80
2023-04-05T03:06:22.525Z,2.80
2023-04-05T03:08:54.013Z,2.80
2023-04-05T03:11:25.410Z,2.80
2023-04-05T03:13:58.256Z,2.80
2023-04-05T03:16:40.607Z,2.80
2023-04-05T03:19:41.454Z,2.70
2023-04-05T03:22:17.636Z,2.70
2023-04-05T03:24:47.859Z,2.70
2023-04-05T03:27:18.834Z,2.60
2023-04-05T03:30:09.121Z,2.60
2023-04-05T03:32:43.003Z,2.50
2023-04-05T03:35:21.860Z,2.60
2023-04-05T03:37:51.590Z,2.60
2023-04-05T03:40:21.899Z,2.60
2023-04-05T03:42:51.459Z,2.50
2023-04-05T03:45:23.309Z,2.40
2023-04-05T03:47:53.616Z,2.40
2023-04-05T03:50:22.542Z,2.40
2023-04-05T03:52:51.276Z,2.40
2023-04-05T03:55:21.316Z,2.40
2023-04-05T03:57:51.699Z,2.40
2023-04-05T04:00:26.556Z,2.40
2023-04-05T04:03:21.506Z,2.40
2023-04-05T04:05:54.078Z,2.40
2023-04-05T04:08:22.631Z,2.40
2023-04-05T04:10:52.372Z,2.40
2023-04-05T04:13:26.759Z,2.40
2023-04-05T04:16:02.433Z,2.40
2023-04-05T04:18:57.067Z,2.40
2023-04-05T04:21:39.488Z,2.40
2023-04-05T04:24:26.671Z,2.40
2023-04-05T04:27:22.673Z,2.40
2023-04-05T04:30:11.374Z,2.40
2023-04-05T04:33:09.322Z,2.40
2023-04-05T04:35:54.843Z,2.40
2023-04-05T04:38:55.861Z,2.40
2023-04-05T04:41:47.193Z,2.40
2023-04-05T04:44:28.728Z,2.40
2023-04-05T04:47:13.753Z,2.40
2023-04-05T04:50:01.945Z,2.40
2023-04-05T04:52:31.088Z,2.40
2023-04-05T04:54:59.314Z,2.40
2023-04-05T04:57:27.548Z,2.40
2023-04-05T04:59:58.117Z,2.50
2023-04-05T05:02:26.404Z,2.50
2023-04-05T05:04:55.242Z,2.50
2023-04-05T05:07:25.596Z,2.50
2023-04-05T05:09:54.824Z,2.50
2023-04-05T05:12:23.631Z,2.50
2023-04-05T05:14:52.113Z,2.50
2023-04-05T05:17:25.181Z,2.50
2023-04-05T05:19:55.253Z,2.60
2023-04-05T05:22:24.928Z,2.60
2023-04-05T05:24:53.412Z,2.70
2023-04-05T05:27:22.215Z,2.70
2023-04-05T05:29:50.508Z,2.80
2023-04-05T05:32:18.973Z,2.80
2023-04-05T05:34:48.987Z,2.80
2023-04-05T05:37:17.862Z,2.80
2023-04-05T05:39:46.047Z,2.80
2023-04-05T05:42:14.535Z,2.80
2023-04-05T05:44:43.080Z,2.90
2023-04-05T05:47:11.199Z,3.00
2023-04-05T05:49:39.787Z,3.00
2023-04-05T05:52:09.616Z,3.10
2023-04-05T05:54:37.964Z,3.20
2023-04-05T05:57:06.509Z,3.40
2023-04-05T05:59:34.806Z,4.20
2023-04-05T06:02:03.406Z,4.70
2023-04-05T06:04:32.011Z,4.80
2023-04-05T06:07:00.691Z,5.30
2023-04-05T06:09:30.935Z,5.70
2023-04-05T06:11:59.594Z,5.90
2023-04-05T06:14:29.705Z,7.20
2023-04-05T06:16:58.198Z,8.60
2023-04-05T06:19:26.790Z,9.60
2023-04-05T06:21:56.494Z,10.20
2023-04-05T06:24:25.011Z,10.30
2023-04-05T06:26:55.005Z,10.30
2023-04-05T06:29:23.572Z,10.80
2023-04-05T06:31:51.896Z,10.20
2023-04-05T06:34:20.156Z,9.30
2023-04-05T06:36:48.662Z,8.70
2023-04-05T06:39:16.892Z,8.20
2023-04-05T06:41:45.472Z,8.10
2023-04-05T06:44:15.107Z,8.20
2023-04-05T06:46:43.592Z,8.40
2023-04-05T06:49:11.787Z,8.40
2023-04-05T06:51:40.803Z,8.40
2023-04-05T06:54:09.120Z,8.20
2023-04-05T06:56:37.858Z,8.00
2023-04-05T06:59:06.433Z,7.60
2023-04-05T07:01:36.074Z,7.40
2023-04-05T07:04:04.376Z,7.40
2023-04-05T07:06:34.587Z,7.80
2023-04-05T07:09:03.976Z,8.20
2023-04-05T07:11:32.960Z,8.30
2023-04-05T07:14:01.953Z,8.20
2023-04-05T07:16:30.635Z,8.10
2023-04-05T07:19:00.622Z,8.40
2023-04-05T07:21:30.975Z,9.40
2023-04-05T07:24:00.848Z,10.20
2023-04-05T07:26:29.372Z,11.30
2023-04-05T07:28:57.859Z,12.20
2023-04-05T07:31:27.330Z,12.60
2023-04-05T07:33:55.995Z,13.00
2023-04-05T07:36:27.118Z,13.40
2023-04-05T07:38:55.769Z,13.70
2023-04-05T07:41:25.648Z,14.00
2023-04-05T07:43:54.153Z,14.50
2023-04-05T07:46:22.670Z,14.30
2023-04-05T07:48:51.076Z,14.50
2023-04-05T07:51:19.226Z,14.60
2023-04-05T07:53:49.492Z,14.80
2023-04-05T07:56:18.088Z,14.60
2023-04-05T07:58:47.618Z,14.80
2023-04-05T08:01:15.845Z,14.80
2023-04-05T08:03:44.184Z,14.90
2023-04-05T08:06:13.624Z,14.70
2023-04-05T08:08:42.546Z,14.10
2023-04-05T08:11:12.221Z,13.80
2023-04-05T08:13:41.877Z,13.80
2023-04-05T08:16:11.071Z,13.90
2023-04-05T08:18:39.955Z,14.30
2023-04-05T08:21:08.317Z,14.70
2023-04-05T08:23:36.690Z,14.80
2023-04-05T08:26:05.271Z,14.90
2023-04-05T08:28:35.480Z,15.10
2023-04-05T08:31:03.819Z,14.40
2023-04-05T08:33:32.098Z,14.10
2023-04-05T08:36:05.683Z,14.40
2023-04-05T08:38:33.973Z,14.70
2023-04-05T08:41:10.369Z,14.70
2023-04-05T08:43:56.203Z,14.70
2023-04-05T08:46:25.449Z,14.70
2023-04-05T08:48:54.206Z,14.80
2023-04-05T08:51:23.388Z,14.80
2023-04-05T08:53:51.756Z,14.10
2023-04-05T08:56:23.001Z,13.10
2023-04-05T08:59:02.863Z,12.50
2023-04-05T09:01:33.427Z,12.10
2023-04-05T09:04:06.733Z,11.90
2023-04-05T09:06:36.780Z,11.60
2023-04-05T09:09:08.516Z,11.30
2023-04-05T09:11:37.056Z,11.30
2023-04-05T09:14:07.141Z,11.80
2023-04-05T09:16:38.401Z,12.40
2023-04-05T09:19:07.092Z,12.70
2023-04-05T09:21:59.850Z,13.30
2023-04-05T09:24:36.826Z,13.40
2023-04-05T09:27:06.400Z,13.50
2023-04-05T09:29:36.820Z,14.20
2023-04-05T09:32:07.821Z,15.00
2023-04-05T09:34:38.218Z,14.90
2023-04-05T09:37:15.119Z,14.50
2023-04-05T09:39:44.492Z,13.80
2023-04-05T09:42:15.503Z,13.10
2023-04-05T09:45:01.704Z,12.50
2023-04-05T09:47:35.084Z,11.90
2023-04-05T09:50:20.530Z,11.50
2023-04-05T09:52:49.381Z,11.30
2023-04-05T09:55:28.087Z,11.20
2023-04-05T09:57:56.483Z,11.00
2023-04-05T10:00:26.566Z,10.70
2023-04-05T10:02:56.779Z,10.60
2023-04-05T10:05:28.341Z,10.40
2023-04-05T10:07:57.624Z,10.20
2023-04-05T10:10:27.049Z,10.50
2023-04-05T10:12:55.447Z,11.30
2023-04-05T10:15:28.056Z,11.90
2023-04-05T10:18:04.718Z,12.00
2023-04-05T10:20:41.058Z,11.80
2023-04-05T10:23:13.891Z,11.80
2023-04-05T10:25:53.679Z,12.40
2023-04-05T10:28:31.661Z,12.20
2023-04-05T10:31:11.569Z,12.00
2023-04-05T10:33:45.390Z,11.80
2023-04-05T10:36:24.275Z,11.40
2023-04-05T10:39:04.519Z,11.50
2023-04-05T10:41:40.919Z,11.30
2023-04-05T10:44:24.935Z,11.20
2023-04-05T10:46:58.210Z,11.10
2023-04-05T10:49:35.632Z,11.30
2023-04-05T10:52:04.558Z,11.80
2023-04-05T10:54:37.225Z,11.90
2023-04-05T10:57:09.777Z,12.10
2023-04-05T10:59:45.530Z,11.90
2023-04-05T11:02:16.375Z,11.50
2023-04-05T11:04:45.322Z,11.30
2023-04-05T11:07:15.355Z,10.90
2023-04-05T11:09:57.420Z,10.90
2023-04-05T11:13:02.958Z,10.80
2023-04-05T11:15:32.795Z,10.90
2023-04-05T11:18:07.732Z,11.10
2023-04-05T11:20:52.110Z,11.10
2023-04-05T11:23:21.770Z,11.50
2023-04-05T11:25:54.062Z,11.70
2023-04-05T11:28:41.065Z,12.00
2023-04-05T11:31:17.085Z,12.40
2023-04-05T11:34:01.157Z,12.80
2023-04-05T11:36:34.782Z,13.10
2023-04-05T11:39:25.188Z,13.80
2023-04-05T11:42:04.591Z,14.20
2023-04-05T11:44:42.876Z,14.50
2023-04-05T11:47:11.910Z,14.90
2023-04-05T11:49:42.799Z,15.20
2023-04-05T11:52:16.073Z,15.20
2023-04-05T11:54:49.701Z,15.20
2023-04-05T11:57:21.073Z,14.40
2023-04-05T11:59:52.109Z,13.40
2023-04-05T12:02:20.804Z,12.70
2023-04-05T12:04:57.728Z,12.20
2023-04-05T12:07:28.366Z,11.90
2023-04-05T12:10:03.430Z,12.00
2023-04-05T12:12:36.119Z,12.20
2023-04-05T12:15:05.855Z,12.30
2023-04-05T12:17:44.498Z,12.30
2023-04-05T12:20:17.821Z,11.90
2023-04-05T12:22:48.366Z,11.70
2023-04-05T12:25:18.009Z,11.60
2023-04-05T12:27:46.649Z,11.40
2023-04-05T12:30:19.894Z,11.30
2023-04-05T12:32:49.772Z,11.20
2023-04-05T12:35:21.014Z,11.20
2023-04-05T12:37:51.221Z,11.20
2023-04-05T12:40:23.082Z,11.00
2023-04-05T12:42:52.194Z,10.90
2023-04-05T12:45:24.983Z,10.80
2023-04-05T12:47:57.958Z,10.70
2023-04-05T12:50:31.490Z,10.50
2023-04-05T12:53:01.607Z,10.40
2023-04-05T12:55:30.803Z,10.40
2023-04-05T12:58:01.793Z,10.60
2023-04-05T13:00:32.766Z,10.60
2023-04-05T13:03:01.341Z,10.80
2023-04-05T13:05:31.911Z,11.30
2023-04-05T13:08:00.338Z,12.00
2023-04-05T13:10:28.998Z,12.40
2023-04-05T13:12:57.719Z,12.60
2023-04-05T13:15:27.219Z,13.00
2023-04-05T13:17:55.585Z,13.00
2023-04-05T13:20:24.051Z,12.70
2023-04-05T13:22:53.637Z,12.50
2023-04-05T13:25:22.223Z,12.10
2023-04-05T13:27:50.472Z,11.80
2023-04-05T13:30:20.057Z,11.50
2023-04-05T13:32:48.368Z,11.10
2023-04-05T13:35:17.014Z,10.90
2023-04-05T13:37:45.302Z,10.60
2023-04-05T13:40:16.921Z,10.40
2023-04-05T13:42:45.892Z,10.10
2023-04-05T13:45:14.521Z,10.00
2023-04-05T13:47:42.958Z,9.90
2023-04-05T13:50:12.121Z,9.90
2023-04-05T13:52:40.575Z,9.90
2023-04-05T13:55:09.742Z,9.80
2023-04-05T13:57:39.412Z,9.70
2023-04-05T14:00:09.777Z,9.50
2023-04-05T14:02:41.081Z,9.50
2023-04-05T14:05:10.574Z,9.40
2023-04-05T14:07:39.188Z,9.20
2023-04-05T14:10:08.656Z,9.10
2023-04-05T14:12:38.880Z,9.10
2023-04-05T14:15:08.362Z,9.00
2023-04-05T14:17:36.777Z,8.90
2023-04-05T14:20:07.104Z,8.90
2023-04-05T14:22:35.473Z,8.90
2023-04-05T14:25:04.972Z,8.80
2023-04-05T14:27:33.328Z,8.80
2023-04-05T14:30:03.479Z,8.80
2023-04-05T14:32:33.724Z,8.80
2023-04-05T14:35:03.054Z,8.80
2023-04-05T14:37:31.457Z,8.70
2023-04-05T14:39:59.853Z,8.70
2023-04-05T14:42:41.079Z,8.70
2023-04-05T14:45:18.733Z,8.60
2023-04-05T14:47:47.502Z,8.60
2023-04-05T14:50:16.173Z,8.60
2023-04-05T14:52:45.461Z,8.60
2023-04-05T14:55:14.161Z,8.60
2023-04-05T14:57:43.125Z,8.60
2023-04-05T15:00:13.110Z,8.60
2023-04-05T15:02:43.284Z,8.50
2023-04-05T15:05:11.972Z,8.60
2023-04-05T15:07:40.603Z,8.50
2023-04-05T15:10:09.921Z,8.60
2023-04-05T15:12:38.369Z,8.60
2023-04-05T15:15:08.575Z,8.60
2023-04-05T15:17:36.954Z,8.70
2023-04-05T15:20:08.361Z,8.70
2023-04-05T15:22:40.794Z,8.70
2023-04-05T15:25:10.843Z,8.80
2023-04-05T15:27:39.309Z,8.90
2023-04-05T15:30:09.430Z,8.90
2023-04-05T15:32:38.309Z,8.90
2023-04-05T15:35:09.824Z,8.90
2023-04-05T15:37:39.150Z,8.90
2023-04-05T15:40:09.658Z,8.80
2023-04-05T15:42:38.139Z,8.80
2023-04-05T15:45:07.923Z,8.80
2023-04-05T15:47:36.481Z,8.70
2023-04-05T15:50:05.558Z,8.60
2023-04-05T15:52:36.257Z,8.50
2023-04-05T15:55:05.783Z,8.30
2023-04-05T15:57:34.163Z,8.20
2023-04-05T16:00:02.987Z,8.10
2023-04-05T16:02:33.186Z,8.10
2023-04-05T16:05:02.189Z,8.00
2023-04-05T16:07:30.523Z,7.90
2023-04-05T16:10:00.676Z,7.80
2023-04-05T16:12:29.119Z,7.70
2023-04-05T16:14:58.054Z,7.70
2023-04-05T16:17:27.810Z,7.60
2023-04-05T16:19:57.279Z,7.60
2023-04-05T16:22:26.705Z,7.50
2023-04-05T16:24:55.107Z,7.50
2023-04-05T16:27:24.936Z,7.50
2023-04-05T16:29:53.971Z,7.50
2023-04-05T16:32:22.473Z,7.40
2023-04-05T16:34:51.802Z,7.40
2023-04-05T16:37:21.053Z,7.40
2023-04-05T16:39:49.394Z,7.40
2023-04-05T16:42:18.489Z,7.40
2023-04-05T16:44:48.266Z,7.50
2023-04-05T16:47:17.089Z,7.50
2023-04-05T16:49:45.416Z,7.50
2023-04-05T16:52:14.950Z,7.50
2023-04-05T16:54:43.313Z,7.60
2023-04-05T16:57:12.795Z,7.60
2023-04-05T16:59:42.141Z,7.70
2023-04-05T17:02:12.319Z,7.70
2023-04-05T17:04:40.719Z,7.70
2023-04-05T17:07:09.637Z,7.70
2023-04-05T17:09:38.038Z,7.70
2023-04-05T17:12:07.025Z,7.70
2023-04-05T17:14:35.487Z,7.70
2023-04-05T17:17:04.423Z,7.60
2023-04-05T17:19:34.292Z,7.60
2023-04-05T17:22:03.475Z,7.60
2023-04-05T17:24:36.061Z,7.60
2023-04-05T17:27:05.196Z,7.50
2023-04-05T17:29:33.609Z,7.50
2023-04-05T17:32:02.290Z,7.40
2023-04-05T17:34:30.659Z,7.40
2023-04-05T17:37:00.783Z,7.30
2023-04-05T17:39:29.154Z,7.30
2023-04-05T17:41:57.557Z,7.20
2023-04-05T17:44:26.082Z,7.10
2023-04-05T17:47:05.963Z,7.10
2023-04-05T17:49:37.653Z,7.00
2023-04-05T17:52:09.852Z,6.90
2023-04-05T17:54:39.401Z,6.90
2023-04-05T17:57:15.709Z,6.80
2023-04-05T17:59:44.316Z,6.70
2023-04-05T18:02:13.138Z,6.70
2023-04-05T18:04:42.235Z,6.70
2023-04-05T18:07:12.313Z,6.70
2023-04-05T18:09:42.384Z,6.60
2023-04-05T18:12:11.840Z,6.60
2023-04-05T18:14:40.357Z,6.60
2023-04-05T18:17:09.173Z,6.60
2023-04-05T18:19:37.971Z,6.60
2023-04-05T18:22:06.952Z,6.60
2023-04-05T18:24:36.730Z,6.50
2023-04-05T18:27:05.671Z,6.60
2023-04-05T18:29:37.877Z,6.50
2023-04-05T18:32:07.697Z,6.50
2023-04-05T18:34:36.408Z,6.40
2023-04-05T18:37:05.756Z,6.40
2023-04-05T18:39:34.107Z,6.30
2023-04-05T18:42:04.645Z,6.30
2023-04-05T18:44:33.132Z,6.30
2023-04-05T18:47:01.599Z,6.20
2023-04-05T18:49:29.998Z,6.20
2023-04-05T18:51:58.843Z,6.10
2023-04-05T18:54:27.389Z,6.10
2023-04-05T18:56:56.589Z,6.00
2023-04-05T18:59:26.457Z,5.90
2023-04-05T19:01:55.289Z,5.90
2023-04-05T19:04:23.679Z,5.80
2023-04-05T19:06:52.872Z,5.80
2023-04-05T19:09:22.129Z,5.70
2023-04-05T19:11:50.988Z,5.70
2023-04-05T19:14:19.367Z,5.70
2023-04-05T19:16:49.484Z,5.70
2023-04-05T19:19:19.068Z,5.60
2023-04-05T19:21:47.924Z,5.60
2023-04-05T19:24:16.282Z,5.50
2023-04-05T19:26:45.881Z,5.40
2023-04-05T19:29:14.284Z,5.40
2023-04-05T19:31:43.456Z,5.30
2023-04-05T19:34:13.248Z,5.30
2023-04-05T19:36:42.136Z,5.30
2023-04-05T19:39:12.053Z,5.20
2023-04-05T19:41:43.423Z,5.30
2023-04-05T19:44:13.046Z,5.20
2023-04-05T19:46:42.260Z,5.10
2023-04-05T19:49:14.236Z,5.00
2023-04-05T19:51:43.739Z,5.00
2023-04-05T19:54:14.848Z,5.00
2023-04-05T19:56:43.699Z,5.00
2023-04-05T19:59:34.600Z,5.00
2023-04-05T20:02:14.798Z,5.00
2023-04-05T20:04:46.009Z,5.00
2023-04-05T20:07:15.037Z,5.00
2023-04-05T20:09:44.275Z,5.00
2023-04-05T20:12:15.816Z,5.00
2023-04-05T20:14:47.995Z,5.00
2023-04-05T20:17:19.065Z,4.90
2023-04-05T20:20:00.840Z,4.90
2023-04-05T20:22:30.152Z,4.80
2023-04-05T20:24:58.980Z,4.70
2023-04-05T20:27:27.770Z,4.70
2023-04-05T20:29:57.245Z,4.70
2023-04-05T20:32:27.961Z,4.60
2023-04-05T20:34:57.836Z,4.60
2023-04-05T20:37:26.644Z,4.50
2023-04-05T20:39:55.369Z,4.50
2023-04-05T20:42:25.857Z,4.50
2023-04-05T20:44:54.217Z,4.50
2023-04-05T20:47:22.775Z,4.40
2023-04-05T20:49:51.324Z,4.40
2023-04-05T20:52:21.232Z,4.40
2023-04-05T20:54:51.159Z,4.40
2023-04-05T20:57:19.942Z,4.30
2023-04-05T20:59:48.292Z,4.20
2023-04-05T21:02:16.791Z,4.20
2023-04-05T21:04:46.291Z,4.10
2023-04-05T21:07:14.815Z,4.10
2023-04-05T21:09:44.821Z,4.00
2023-04-05T21:12:13.313Z,4.00
2023-04-05T21:14:41.704Z,4.00
2023-04-05T21:17:11.036Z,3.90
2023-04-05T21:19:39.348Z,3.90
2023-04-05T21:22:08.238Z,3.90
2023-04-05T21:24:36.597Z,4.00
2023-04-05T21:27:07.222Z,4.00
2023-04-05T21:29:35.672Z,4.00
2023-04-05T21:32:04.875Z,3.90
2023-04-05T21:34:33.235Z,3.90
2023-04-05T21:37:02.451Z,3.90
2023-04-05T21:39:30.839Z,4.00
2023-04-05T21:41:59.908Z,4.00
2023-04-05T21:44:29.699Z,3.90
2023-04-05T21:46:59.875Z,3.90
2023-04-05T21:49:28.233Z,3.80
2023-04-05T21:51:57.067Z,3.80
2023-04-05T21:54:25.464Z,3.80
2023-04-05T21:56:54.170Z,3.80
2023-04-05T21:59:22.548Z,3.90
2023-04-05T22:01:52.727Z,3.80
2023-04-05T22:04:21.131Z,3.80
2023-04-05T22:06:49.879Z,3.80
2023-04-05T22:09:18.228Z,3.80
2023-04-05T22:11:47.064Z,3.80
2023-04-05T22:14:16.033Z,3.80
2023-04-05T22:16:45.174Z,3.80
2023-04-05T22:19:15.153Z,3.90
2023-04-05T22:21:43.546Z,3.90
2023-04-05T22:24:12.616Z,3.90
2023-04-05T22:26:42.151Z,4.00
2023-04-05T22:29:11.117Z,4.00
2023-04-05T22:31:39.536Z,4.00
2023-04-05T22:34:07.982Z,4.10
2023-04-05T22:36:37.734Z,4.10
2023-04-05T22:39:06.152Z,4.00
2023-04-05T22:41:34.944Z,4.00
2023-04-05T22:44:03.356Z,4.00
2023-04-05T22:46:32.219Z,3.90
2023-04-05T22:49:01.136Z,3.80
2023-04-05T22:51:29.810Z,3.90
2023-04-05T22:53:59.547Z,3.90
2023-04-05T22:56:28.280Z,3.90
2023-04-05T22:58:56.680Z,4.00
2023-04-05T23:01:25.189Z,3.90
2023-04-05T23:03:53.667Z,4.00
2023-04-05T23:06:22.676Z,4.00
2023-04-05T23:08:51.016Z,4.00
2023-04-05T23:11:21.625Z,4.00
2023-04-05T23:13:50.649Z,4.10
2023-04-05T23:16:19.029Z,4.10
2023-04-05T23:18:49.163Z,4.10
2023-04-05T23:21:18.375Z,4.10
2023-04-05T23:23:46.703Z,4.10
2023-04-05T23:26:15.762Z,4.10
2023-04-05T23:28:45.651Z,4.20
2023-04-05T23:31:14.533Z,4.20
2023-04-05T23:33:42.943Z,4.30
2023-04-05T23:36:11.864Z,4.30
2023-04-05T23:38:40.183Z,4.30
2023-04-05T23:41:08.614Z,4.40
2023-04-05T23:43:36.933Z,4.40
2023-04-05T23:46:07.868Z,4.40
2023-04-05T23:48:36.614Z,4.50
2023-04-05T23:51:05.610Z,4.50
2023-04-05T23:53:33.978Z,4.50
2023-04-05T23:56:03.603Z,4.40
2023-04-05T23:58:32.029Z,4.40
